Time;durP1;ratioP1;P1;durP2;ratioP2;P2;SDS_P1;SDS_P2;PMS_P1;PMS_P2;Temp;Humidity;BMP_temperature;BMP_pressure;BME280_temperature;BME280_humidity;BME280_pressure;Samples;Min_cycle;Max_cycle;Signal;HPM_P1;HPM_P2
2022/12/16 00:00:24;;;;;;;56.03;28.95;;;-2.60;99.90;;;;;;4143492;28;20468;-62
2022/12/16 00:02:25;;;;;;;61.05;29.17;;;-2.60;99.90;;;;;;4141598;28;20472;-62
2022/12/16 00:04:25;;;;;;;60.88;28.83;;;-2.60;99.90;;;;;;4142199;28;20089;-62
2022/12/16 00:06:30;;;;;;;61.67;28.83;;;-2.60;99.90;;;;;;4142808;28;20066;-62
2022/12/16 00:08:33;;;;;;;58.10;28.55;;;-2.60;99.90;;;;;;4135201;28;20034;-62
2022/12/16 00:10:51;;;;;;;63.42;29.83;;;-2.60;99.90;;;;;;4133239;28;20047;-63
2022/12/16 00:12:52;;;;;;;59.05;28.58;;;-2.60;99.90;;;;;;4138928;28;20054;-62
2022/12/16 00:14:53;;;;;;;69.38;31.30;;;-2.60;99.90;;;;;;4134270;28;20393;-62
2022/12/16 00:16:54;;;;;;;63.07;30.23;;;-2.70;99.90;;;;;;4135696;28;20039;-62
2022/12/16 00:18:54;;;;;;;64.65;29.48;;;-2.80;99.90;;;;;;4132939;28;20030;-62
2022/12/16 00:20:55;;;;;;;66.90;29.67;;;-2.80;99.90;;;;;;4134477;28;20029;-62
2022/12/16 00:22:56;;;;;;;59.83;27.05;;;-2.80;99.90;;;;;;4140722;28;20034;-62
2022/12/16 00:24:56;;;;;;;54.90;26.02;;;-2.90;99.90;;;;;;4133993;28;20030;-62
2022/12/16 00:26:57;;;;;;;58.97;27.95;;;-2.80;99.90;;;;;;4133577;28;20056;-64
2022/12/16 00:28:57;;;;;;;63.08;29.08;;;-2.90;99.90;;;;;;4144323;28;20437;-63
2022/12/16 00:30:58;;;;;;;62.72;29.92;;;-2.80;99.90;;;;;;4143387;28;20034;-63
2022/12/16 00:32:59;;;;;;;60.58;26.95;;;-2.80;99.90;;;;;;4145480;28;20046;-62
2022/12/16 00:35:00;;;;;;;61.10;28.10;;;-2.80;99.90;;;;;;4143435;28;20033;-62
2022/12/16 00:37:00;;;;;;;58.05;27.63;;;-2.90;99.90;;;;;;4142539;28;20030;-63
2022/12/16 00:39:01;;;;;;;65.97;29.75;;;-2.80;99.90;;;;;;4126856;28;20563;-62
2022/12/16 00:41:02;;;;;;;61.40;28.35;;;-2.80;99.90;;;;;;4139467;28;20037;-62
2022/12/16 00:43:03;;;;;;;68.95;30.05;;;-2.90;99.90;;;;;;4129358;28;20413;-62
2022/12/16 00:45:03;;;;;;;63.20;28.92;;;-2.90;99.90;;;;;;4130557;28;20030;-64
2022/12/16 00:47:04;;;;;;;64.55;29.67;;;-2.90;99.90;;;;;;4141952;28;20044;-63
2022/12/16 00:49:05;;;;;;;58.85;27.88;;;-2.90;99.90;;;;;;4137712;28;20042;-62
2022/12/16 00:51:05;;;;;;;60.15;28.58;;;-2.90;99.90;;;;;;4134721;28;20043;-63
2022/12/16 00:53:06;;;;;;;58.83;27.83;;;-2.80;99.90;;;;;;4135778;28;20054;-62
2022/12/16 00:55:07;;;;;;;59.65;27.60;;;-2.90;99.90;;;;;;4130879;28;20077;-63
2022/12/16 00:57:07;;;;;;;54.22;26.08;;;-2.90;99.90;;;;;;4141221;28;20108;-63
2022/12/16 00:59:08;;;;;;;58.35;25.25;;;-2.90;99.90;;;;;;4141748;28;20495;-62
2022/12/16 01:01:09;;;;;;;60.35;28.02;;;-3.00;99.90;;;;;;4144621;28;20425;-63
2022/12/16 01:03:09;;;;;;;61.85;27.73;;;-3.00;99.90;;;;;;4136460;28;20458;-62
2022/12/16 01:05:12;;;;;;;60.90;27.88;;;-3.00;99.90;;;;;;4134581;28;20060;-63
2022/12/16 01:07:13;;;;;;;59.85;27.73;;;-3.00;99.90;;;;;;4143153;28;20396;-62
2022/12/16 01:09:14;;;;;;;54.00;25.17;;;-3.00;99.90;;;;;;4135063;28;20026;-62
2022/12/16 01:11:17;;;;;;;57.38;26.35;;;-3.00;99.90;;;;;;4131214;28;20393;-62
2022/12/16 01:13:17;;;;;;;;;;;-3.00;99.90;;;;;;4135866;28;20049;-62
2022/12/16 01:15:18;;;;;;;56.78;24.65;;;-3.00;99.90;;;;;;4138666;28;19963;-61
2022/12/16 01:17:19;;;;;;;57.15;26.13;;;-3.00;99.90;;;;;;4137791;28;20042;-61
2022/12/16 01:19:19;;;;;;;57.60;26.60;;;-3.00;99.90;;;;;;4136653;28;20030;-61
2022/12/16 01:21:20;;;;;;;57.17;26.80;;;-3.00;99.90;;;;;;4140473;28;20120;-61
2022/12/16 01:23:21;;;;;;;56.75;26.60;;;-3.00;99.90;;;;;;4143453;28;20049;-61
2022/12/16 01:25:22;;;;;;;59.90;26.35;;;-3.00;99.90;;;;;;4141760;28;20504;-62
2022/12/16 01:27:22;;;;;;;55.05;26.90;;;-3.00;99.90;;;;;;4140912;28;20038;-61
2022/12/16 01:29:23;;;;;;;54.15;26.60;;;-3.00;99.90;;;;;;4134352;28;20053;-61
2022/12/16 01:31:24;;;;;;;59.03;25.90;;;-3.00;99.90;;;;;;4134932;28;20042;-61
2022/12/16 01:33:24;;;;;;;54.92;25.90;;;-3.00;99.90;;;;;;4130243;28;20056;-61
2022/12/16 01:35:25;;;;;;;55.15;26.58;;;-2.90;99.90;;;;;;4137059;28;20030;-61
2022/12/16 01:37:26;;;;;;;56.85;25.60;;;-2.90;99.90;;;;;;4141376;28;20054;-61
2022/12/16 01:39:29;;;;;;;56.67;25.48;;;-2.90;99.90;;;;;;4140492;28;20045;-61
2022/12/16 01:41:29;;;;;;;52.67;26.10;;;-2.90;99.90;;;;;;4130910;28;20509;-62
2022/12/16 01:43:33;;;;;;;56.17;25.90;;;-2.90;99.90;;;;;;4140678;28;20057;-62
2022/12/16 01:45:34;;;;;;;61.70;27.83;;;-2.80;99.90;;;;;;4142450;28;20073;-62
2022/12/16 01:47:35;;;;;;;65.68;27.88;;;-2.80;99.90;;;;;;4135225;28;20034;-61
2022/12/16 01:50:05;;;;;;;60.45;28.00;;;-2.70;99.90;;;;;;4143382;28;20033;-61
2022/12/16 01:52:09;;;;;;;60.08;27.02;;;-2.70;99.90;;;;;;4140438;28;20038;-61
2022/12/16 01:54:23;;;;;;;56.42;26.50;;;-2.70;99.90;;;;;;4138561;28;20128;-61
2022/12/16 01:56:27;;;;;;;53.05;24.65;;;-2.60;99.90;;;;;;4140958;28;20037;-61
2022/12/16 01:58:32;;;;;;;52.60;24.27;;;-2.60;99.90;;;;;;4142422;28;20030;-61
2022/12/16 02:00:34;;;;;;;55.50;24.77;;;-2.60;99.90;;;;;;4140634;28;20030;-61
2022/12/16 02:02:35;;;;;;;55.72;25.13;;;-2.60;99.90;;;;;;4139007;28;20042;-62
2022/12/16 02:05:19;;;;;;;52.50;24.77;;;-2.60;99.90;;;;;;4142753;28;20089;-61
2022/12/16 02:06:57;;;;;;;47.42;23.45;;;-2.60;99.90;;;;;;4141391;28;20508;-61
2022/12/16 02:09:01;;;;;;;52.65;25.77;;;-2.50;99.90;;;;;;4158339;28;20041;-62
2022/12/16 02:11:09;;;;;;;53.17;24.52;;;-2.50;99.90;;;;;;4137294;28;20030;-62
2022/12/16 02:13:49;;;;;;;51.65;25.75;;;-2.50;99.90;;;;;;4143276;28;20485;-62
2022/12/16 02:15:58;;;;;;;60.67;26.63;;;-2.50;99.90;;;;;;4134472;28;20046;-62
2022/12/16 02:18:12;;;;;;;56.45;25.05;;;-2.50;99.90;;;;;;4141427;28;20038;-63
2022/12/16 02:20:33;;;;;;;57.28;26.38;;;-2.50;99.90;;;;;;4142689;28;20038;-62
2022/12/16 02:23:10;;;;;;;56.25;25.25;;;-2.40;99.90;;;;;;4144256;28;20053;-62
2022/12/16 02:25:38;;;;;;;51.83;24.08;;;-2.40;99.90;;;;;;4133761;28;20038;-62
2022/12/16 02:27:50;;;;;;;59.00;26.23;;;-2.40;99.90;;;;;;4139656;28;20048;-62
2022/12/16 02:30:21;;;;;;;49.85;25.20;;;-2.30;99.90;;;;;;4143466;28;20129;-62
2022/12/16 02:33:07;;;;;;;58.45;25.13;;;-2.30;99.90;;;;;;4142450;28;20138;-62
2022/12/16 02:35:24;;;;;;;52.47;24.85;;;-2.30;99.90;;;;;;4134338;28;20402;-62
2022/12/16 02:37:38;;;;;;;52.88;26.33;;;-2.30;99.90;;;;;;4133406;28;20060;-61
2022/12/16 02:39:49;;;;;;;53.80;25.80;;;-2.20;99.90;;;;;;4140258;28;20034;-62
2022/12/16 02:42:27;;;;;;;61.63;25.73;;;-2.20;99.90;;;;;;4143259;28;20041;-62
2022/12/16 02:45:00;;;;;;;49.17;24.38;;;-2.20;99.90;;;;;;4128496;28;20130;-62
2022/12/16 02:47:01;;;;;;;49.63;25.13;;;-2.30;99.90;;;;;;4118252;28;20076;-62
2022/12/16 02:49:11;;;;;;;55.42;24.52;;;-2.20;99.90;;;;;;4130158;28;20050;-62
2022/12/16 02:51:12;;;;;;;50.60;24.98;;;-2.30;99.90;;;;;;4141351;28;20037;-62
2022/12/16 02:53:12;;;;;;;51.25;24.23;;;-2.20;99.90;;;;;;4139834;28;20127;-62
2022/12/16 02:55:14;;;;;;;57.15;25.52;;;-2.20;99.90;;;;;;4141535;28;20034;-62
2022/12/16 02:57:45;;;;;;;49.33;23.67;;;-2.20;99.90;;;;;;4135285;28;20034;-61
2022/12/16 02:59:56;;;;;;;50.05;23.77;;;-2.20;99.90;;;;;;4135912;28;20041;-62
2022/12/16 03:02:05;;;;;;;51.92;23.23;;;-2.10;99.90;;;;;;4143010;28;20069;-62
2022/12/16 03:04:14;;;;;;;45.55;23.40;;;-2.10;99.90;;;;;;4150590;28;20048;-62
2022/12/16 03:06:18;;;;;;;47.08;23.40;;;-2.10;99.90;;;;;;4137569;28;20042;-62
2022/12/16 03:08:24;;;;;;;50.88;25.33;;;-2.10;99.90;;;;;;4142640;28;20045;-62
2022/12/16 03:10:31;;;;;;;52.25;25.15;;;-2.00;99.90;;;;;;4142440;28;20045;-62
2022/12/16 03:12:33;;;;;;;56.05;26.65;;;-2.00;99.90;;;;;;4149130;28;20049;-62
2022/12/16 03:14:39;;;;;;;53.92;26.33;;;-2.00;99.90;;;;;;4146877;28;20121;-62
2022/12/16 03:16:40;;;;;;;52.00;25.02;;;-1.90;99.90;;;;;;4142434;28;20540;-61
2022/12/16 03:18:44;;;;;;;51.95;25.52;;;-1.90;99.90;;;;;;4145903;28;20029;-62
2022/12/16 03:20:51;;;;;;;58.50;25.38;;;-1.90;99.90;;;;;;4142720;28;20057;-62
2022/12/16 03:22:55;;;;;;;54.38;26.08;;;-2.00;99.90;;;;;;4144911;28;20042;-62
2022/12/16 03:24:55;;;;;;;55.75;26.17;;;-2.00;99.90;;;;;;4137749;28;20042;-62
2022/12/16 03:27:11;;;;;;;55.95;26.52;;;-2.00;99.90;;;;;;4147467;28;20393;-62
2022/12/16 03:29:29;;;;;;;51.05;24.65;;;-2.00;99.90;;;;;;4144537;28;20108;-62
2022/12/16 03:31:41;;;;;;;51.25;24.75;;;-2.00;99.90;;;;;;4145748;28;20038;-62
2022/12/16 03:33:52;;;;;;;50.45;24.02;;;-2.00;99.90;;;;;;4146089;28;20038;-62
2022/12/16 03:35:58;;;;;;;48.92;23.25;;;-2.00;99.90;;;;;;4135869;28;20380;-62
2022/12/16 03:38:02;;;;;;;59.92;26.50;;;-2.00;99.90;;;;;;4144496;28;20038;-62
2022/12/16 03:40:06;;;;;;;50.78;24.55;;;-2.00;99.90;;;;;;4144933;28;20453;-62
2022/12/16 03:42:08;;;;;;;56.83;27.42;;;-1.90;99.90;;;;;;4145150;28;20041;-61
2022/12/16 03:44:09;;;;;;;72.22;31.15;;;-1.90;99.90;;;;;;4133141;28;20100;-62
2022/12/16 03:46:11;;;;;;;62.60;27.73;;;-1.80;99.90;;;;;;4145588;28;20125;-62
2022/12/16 03:48:14;;;;;;;61.22;26.90;;;-1.80;99.90;;;;;;4141695;28;20048;-62
2022/12/16 03:50:16;;;;;;;58.75;26.95;;;-1.80;99.90;;;;;;4142215;28;20042;-62
2022/12/16 03:52:17;;;;;;;52.65;24.38;;;-1.70;99.90;;;;;;4139420;28;20429;-62
2022/12/16 03:54:17;;;;;;;52.45;25.67;;;-1.70;99.90;;;;;;4140585;28;20133;-62
2022/12/16 03:56:18;;;;;;;54.67;25.70;;;-1.70;99.90;;;;;;4143114;28;20034;-62
2022/12/16 03:58:19;;;;;;;63.50;26.77;;;-1.60;99.90;;;;;;4143857;28;20041;-62
2022/12/16 04:00:20;;;;;;;62.72;28.83;;;-1.60;99.90;;;;;;4147806;28;20041;-62
2022/12/16 04:02:21;;;;;;;57.58;27.08;;;-1.60;99.90;;;;;;4145423;28;20038;-62
2022/12/16 04:04:22;;;;;;;56.58;26.63;;;-1.60;99.90;;;;;;4145360;28;20476;-61
2022/12/16 04:06:23;;;;;;;59.75;27.42;;;-1.60;99.90;;;;;;4143902;28;20105;-61
2022/12/16 04:08:23;;;;;;;60.63;27.38;;;-1.60;99.90;;;;;;4143397;28;20037;-62
2022/12/16 04:24:28;;;;;;;64.13;29.02;;;-1.50;99.90;;;;;;4139874;28;20108;-62
2022/12/16 04:26:29;;;;;;;59.60;28.15;;;-1.50;99.90;;;;;;4142513;28;20030;-62
2022/12/16 04:28:29;;;;;;;61.63;28.80;;;-1.50;99.90;;;;;;4144612;28;20188;-62
2022/12/16 04:30:33;;;;;;;59.63;27.35;;;-1.50;99.90;;;;;;4141625;28;20030;-61
2022/12/16 04:34:53;;;;;;;53.13;25.33;;;-1.50;99.90;;;;;;4144686;28;20038;-62
